sensor_id;sensor_type;location;lat;lon;timestamp;P1;durP1;ratioP1;P2;durP2;ratioP2
16314;SDS011;8266;52.150;4.768;2023-06-26T00:02:14;3.65;;;3.35;;
16314;SDS011;8266;52.150;4.768;2023-06-26T00:04:42;2.95;;;2.75;;
16314;SDS011;8266;52.150;4.768;2023-06-26T00:07:09;4.15;;;3.30;;
16314;SDS011;8266;52.150;4.768;2023-06-26T00:09:36;3.35;;;3.05;;
16314;SDS011;8266;52.150;4.768;2023-06-26T00:12:03;3.58;;;3.28;;
16314;SDS011;8266;52.150;4.768;2023-06-26T00:14:31;3.38;;;3.08;;
16314;SDS011;8266;52.150;4.768;2023-06-26T00:16:59;4.20;;;3.80;;
16314;SDS011;8266;52.150;4.768;2023-06-26T00:19:26;3.78;;;3.47;;
16314;SDS011;8266;52.150;4.768;2023-06-26T00:21:53;4.05;;;3.42;;
16314;SDS011;8266;52.150;4.768;2023-06-26T00:24:20;4.80;;;3.30;;
16314;SDS011;8266;52.150;4.768;2023-06-26T00:26:47;4.43;;;3.28;;
16314;SDS011;8266;52.150;4.768;2023-06-26T00:29:14;3.95;;;3.58;;
16314;SDS011;8266;52.150;4.768;2023-06-26T00:31:43;3.40;;;3.15;;
16314;SDS011;8266;52.150;4.768;2023-06-26T00:34:11;4.03;;;3.40;;
16314;SDS011;8266;52.150;4.768;2023-06-26T00:36:40;5.22;;;2.92;;
16314;SDS011;8266;52.150;4.768;2023-06-26T00:39:08;3.85;;;3.55;;
16314;SDS011;8266;52.150;4.768;2023-06-26T00:41:35;4.47;;;3.28;;
16314;SDS011;8266;52.150;4.768;2023-06-26T00:44:02;4.03;;;3.63;;
16314;SDS011;8266;52.150;4.768;2023-06-26T00:46:30;5.00;;;3.50;;
16314;SDS011;8266;52.150;4.768;2023-06-26T00:48:58;5.03;;;3.20;;
16314;SDS011;8266;52.150;4.768;2023-06-26T00:51:27;4.15;;;3.45;;
16314;SDS011;8266;52.150;4.768;2023-06-26T00:53:54;3.63;;;3.22;;
16314;SDS011;8266;52.150;4.768;2023-06-26T00:56:22;3.95;;;3.60;;
16314;SDS011;8266;52.150;4.768;2023-06-26T00:58:49;3.33;;;3.03;;
16314;SDS011;8266;52.150;4.768;2023-06-26T01:01:16;3.22;;;2.70;;
16314;SDS011;8266;52.150;4.768;2023-06-26T01:03:47;3.45;;;2.53;;
16314;SDS011;8266;52.150;4.768;2023-06-26T01:06:17;5.53;;;3.08;;
16314;SDS011;8266;52.150;4.768;2023-06-26T01:08:47;3.75;;;2.90;;
16314;SDS011;8266;52.150;4.768;2023-06-26T01:11:15;4.10;;;2.60;;
16314;SDS011;8266;52.150;4.768;2023-06-26T01:13:42;4.38;;;2.92;;
16314;SDS011;8266;52.150;4.768;2023-06-26T01:16:10;4.40;;;2.90;;
16314;SDS011;8266;52.150;4.768;2023-06-26T01:18:38;3.72;;;2.47;;
16314;SDS011;8266;52.150;4.768;2023-06-26T01:21:07;4.20;;;2.58;;
16314;SDS011;8266;52.150;4.768;2023-06-26T01:23:36;3.33;;;2.60;;
16314;SDS011;8266;52.150;4.768;2023-06-26T01:26:17;3.35;;;2.53;;
16314;SDS011;8266;52.150;4.768;2023-06-26T01:28:46;3.70;;;2.47;;
16314;SDS011;8266;52.150;4.768;2023-06-26T01:31:15;6.72;;;2.92;;
16314;SDS011;8266;52.150;4.768;2023-06-26T01:33:43;2.80;;;2.60;;
16314;SDS011;8266;52.150;4.768;2023-06-26T01:36:10;3.15;;;2.38;;
16314;SDS011;8266;52.150;4.768;2023-06-26T01:38:37;4.03;;;2.60;;
16314;SDS011;8266;52.150;4.768;2023-06-26T01:41:04;4.00;;;2.47;;
16314;SDS011;8266;52.150;4.768;2023-06-26T01:43:35;4.75;;;2.90;;
16314;SDS011;8266;52.150;4.768;2023-06-26T01:46:09;4.75;;;3.13;;
16314;SDS011;8266;52.150;4.768;2023-06-26T01:48:49;4.00;;;2.25;;
16314;SDS011;8266;52.150;4.768;2023-06-26T01:51:27;4.68;;;2.58;;
16314;SDS011;8266;52.150;4.768;2023-06-26T01:53:57;3.78;;;2.63;;
16314;SDS011;8266;52.150;4.768;2023-06-26T01:56:26;4.78;;;2.35;;
16314;SDS011;8266;52.150;4.768;2023-06-26T01:58:56;4.22;;;2.45;;
16314;SDS011;8266;52.150;4.768;2023-06-26T02:01:25;5.55;;;2.80;;
16314;SDS011;8266;52.150;4.768;2023-06-26T02:03:52;5.75;;;2.90;;
16314;SDS011;8266;52.150;4.768;2023-06-26T02:06:19;4.60;;;2.55;;
16314;SDS011;8266;52.150;4.768;2023-06-26T02:08:46;6.00;;;2.78;;
16314;SDS011;8266;52.150;4.768;2023-06-26T02:11:13;6.45;;;2.63;;
16314;SDS011;8266;52.150;4.768;2023-06-26T02:13:40;5.40;;;2.97;;
16314;SDS011;8266;52.150;4.768;2023-06-26T02:19:38;7.60;;;2.95;;
16314;SDS011;8266;52.150;4.768;2023-06-26T02:22:40;6.60;;;2.90;;
16314;SDS011;8266;52.150;4.768;2023-06-26T02:25:08;7.60;;;3.22;;
16314;SDS011;8266;52.150;4.768;2023-06-26T02:27:35;5.28;;;2.90;;
16314;SDS011;8266;52.150;4.768;2023-06-26T02:30:02;5.53;;;2.80;;
16314;SDS011;8266;52.150;4.768;2023-06-26T02:32:29;5.05;;;2.90;;
16314;SDS011;8266;52.150;4.768;2023-06-26T02:34:58;7.28;;;3.35;;
16314;SDS011;8266;52.150;4.768;2023-06-26T02:37:25;5.95;;;3.30;;
16314;SDS011;8266;52.150;4.768;2023-06-26T02:39:52;7.45;;;3.28;;
16314;SDS011;8266;52.150;4.768;2023-06-26T02:42:18;8.05;;;3.50;;
16314;SDS011;8266;52.150;4.768;2023-06-26T02:44:45;9.32;;;3.47;;
16314;SDS011;8266;52.150;4.768;2023-06-26T02:47:13;9.27;;;3.03;;
16314;SDS011;8266;52.150;4.768;2023-06-26T02:49:40;5.88;;;2.90;;
16314;SDS011;8266;52.150;4.768;2023-06-26T02:52:08;6.60;;;3.30;;
16314;SDS011;8266;52.150;4.768;2023-06-26T02:54:35;11.80;;;3.63;;
16314;SDS011;8266;52.150;4.768;2023-06-26T02:57:02;7.68;;;3.42;;
16314;SDS011;8266;52.150;4.768;2023-06-26T02:59:29;11.15;;;3.72;;
16314;SDS011;8266;52.150;4.768;2023-06-26T03:01:56;7.95;;;3.72;;
16314;SDS011;8266;52.150;4.768;2023-06-26T03:04:23;7.38;;;3.72;;
16314;SDS011;8266;52.150;4.768;2023-06-26T03:06:50;7.15;;;3.20;;
16314;SDS011;8266;52.150;4.768;2023-06-26T03:09:18;8.63;;;3.00;;
16314;SDS011;8266;52.150;4.768;2023-06-26T03:11:45;9.02;;;3.67;;
16314;SDS011;8266;52.150;4.768;2023-06-26T03:14:12;6.80;;;3.10;;
16314;SDS011;8266;52.150;4.768;2023-06-26T03:16:39;11.75;;;3.60;;
16314;SDS011;8266;52.150;4.768;2023-06-26T03:19:06;7.43;;;2.92;;
16314;SDS011;8266;52.150;4.768;2023-06-26T03:21:33;7.53;;;3.28;;
16314;SDS011;8266;52.150;4.768;2023-06-26T03:24:00;6.80;;;3.00;;
16314;SDS011;8266;52.150;4.768;2023-06-26T03:26:29;5.78;;;3.42;;
16314;SDS011;8266;52.150;4.768;2023-06-26T03:28:56;7.55;;;3.15;;
16314;SDS011;8266;52.150;4.768;2023-06-26T03:31:22;5.90;;;3.40;;
16314;SDS011;8266;52.150;4.768;2023-06-26T03:33:49;6.65;;;3.33;;
16314;SDS011;8266;52.150;4.768;2023-06-26T03:36:16;6.20;;;2.78;;
16314;SDS011;8266;52.150;4.768;2023-06-26T03:38:43;10.57;;;3.55;;
16314;SDS011;8266;52.150;4.768;2023-06-26T03:41:10;5.85;;;2.78;;
16314;SDS011;8266;52.150;4.768;2023-06-26T03:43:39;6.15;;;3.15;;
16314;SDS011;8266;52.150;4.768;2023-06-26T03:46:05;5.68;;;2.80;;
16314;SDS011;8266;52.150;4.768;2023-06-26T03:48:32;6.30;;;3.35;;
16314;SDS011;8266;52.150;4.768;2023-06-26T03:50:59;6.28;;;3.10;;
16314;SDS011;8266;52.150;4.768;2023-06-26T03:53:27;4.45;;;2.90;;
16314;SDS011;8266;52.150;4.768;2023-06-26T03:55:54;5.10;;;2.80;;
16314;SDS011;8266;52.150;4.768;2023-06-26T03:58:21;5.57;;;2.97;;
16314;SDS011;8266;52.150;4.768;2023-06-26T04:00:49;5.88;;;2.67;;
16314;SDS011;8266;52.150;4.768;2023-06-26T04:03:16;4.43;;;3.10;;
16314;SDS011;8266;52.150;4.768;2023-06-26T04:05:44;6.68;;;2.95;;
16314;SDS011;8266;52.150;4.768;2023-06-26T04:08:10;5.00;;;3.00;;
16314;SDS011;8266;52.150;4.768;2023-06-26T04:10:37;5.85;;;2.85;;
16314;SDS011;8266;52.150;4.768;2023-06-26T04:13:04;4.93;;;2.50;;
16314;SDS011;8266;52.150;4.768;2023-06-26T04:15:31;5.78;;;2.90;;
16314;SDS011;8266;52.150;4.768;2023-06-26T04:18:00;7.20;;;3.17;;
16314;SDS011;8266;52.150;4.768;2023-06-26T04:20:27;5.00;;;2.95;;
16314;SDS011;8266;52.150;4.768;2023-06-26T04:22:54;4.50;;;2.72;;
16314;SDS011;8266;52.150;4.768;2023-06-26T04:25:20;6.28;;;3.05;;
16314;SDS011;8266;52.150;4.768;2023-06-26T04:27:48;5.55;;;2.72;;
16314;SDS011;8266;52.150;4.768;2023-06-26T04:30:15;4.68;;;3.00;;
16314;SDS011;8266;52.150;4.768;2023-06-26T04:32:42;4.95;;;2.60;;
16314;SDS011;8266;52.150;4.768;2023-06-26T04:35:11;6.72;;;3.00;;
16314;SDS011;8266;52.150;4.768;2023-06-26T04:37:38;4.20;;;2.80;;
16314;SDS011;8266;52.150;4.768;2023-06-26T04:40:05;3.63;;;2.20;;
16314;SDS011;8266;52.150;4.768;2023-06-26T04:42:34;3.50;;;2.03;;
16314;SDS011;8266;52.150;4.768;2023-06-26T04:45:01;3.38;;;2.20;;
16314;SDS011;8266;52.150;4.768;2023-06-26T04:47:28;4.65;;;2.70;;
16314;SDS011;8266;52.150;4.768;2023-06-26T04:49:55;3.75;;;2.47;;
16314;SDS011;8266;52.150;4.768;2023-06-26T04:52:23;8.10;;;2.83;;
16314;SDS011;8266;52.150;4.768;2023-06-26T04:54:51;3.13;;;2.10;;
16314;SDS011;8266;52.150;4.768;2023-06-26T04:57:18;4.93;;;2.25;;
16314;SDS011;8266;52.150;4.768;2023-06-26T04:59:45;4.13;;;2.67;;
16314;SDS011;8266;52.150;4.768;2023-06-26T05:02:12;4.85;;;2.08;;
16314;SDS011;8266;52.150;4.768;2023-06-26T05:04:40;3.25;;;2.00;;
16314;SDS011;8266;52.150;4.768;2023-06-26T05:07:07;5.03;;;2.33;;
16314;SDS011;8266;52.150;4.768;2023-06-26T05:09:35;3.45;;;1.73;;
16314;SDS011;8266;52.150;4.768;2023-06-26T05:12:03;4.88;;;2.35;;
16314;SDS011;8266;52.150;4.768;2023-06-26T05:14:30;5.60;;;2.08;;
16314;SDS011;8266;52.150;4.768;2023-06-26T05:16:57;2.47;;;1.63;;
16314;SDS011;8266;52.150;4.768;2023-06-26T05:19:24;3.92;;;1.63;;
16314;SDS011;8266;52.150;4.768;2023-06-26T05:21:51;3.42;;;1.92;;
16314;SDS011;8266;52.150;4.768;2023-06-26T05:24:18;2.95;;;2.00;;
16314;SDS011;8266;52.150;4.768;2023-06-26T05:26:48;1.67;;;1.38;;
16314;SDS011;8266;52.150;4.768;2023-06-26T05:29:16;2.58;;;1.52;;
16314;SDS011;8266;52.150;4.768;2023-06-26T05:31:43;2.75;;;1.75;;
16314;SDS011;8266;52.150;4.768;2023-06-26T05:34:11;1.73;;;1.35;;
16314;SDS011;8266;52.150;4.768;2023-06-26T05:36:40;2.50;;;1.67;;
16314;SDS011;8266;52.150;4.768;2023-06-26T05:39:08;2.60;;;1.70;;
16314;SDS011;8266;52.150;4.768;2023-06-26T05:41:36;3.38;;;2.05;;
16314;SDS011;8266;52.150;4.768;2023-06-26T05:44:05;2.28;;;1.60;;
16314;SDS011;8266;52.150;4.768;2023-06-26T05:46:31;4.03;;;1.95;;
16314;SDS011;8266;52.150;4.768;2023-06-26T05:48:58;3.40;;;1.92;;
16314;SDS011;8266;52.150;4.768;2023-06-26T05:51:26;6.55;;;2.20;;
16314;SDS011;8266;52.150;4.768;2023-06-26T05:53:54;4.40;;;1.90;;
16314;SDS011;8266;52.150;4.768;2023-06-26T05:56:21;5.78;;;1.90;;
16314;SDS011;8266;52.150;4.768;2023-06-26T05:58:48;3.00;;;1.85;;
16314;SDS011;8266;52.150;4.768;2023-06-26T06:01:18;4.50;;;2.05;;
16314;SDS011;8266;52.150;4.768;2023-06-26T06:03:45;3.22;;;1.63;;
16314;SDS011;8266;52.150;4.768;2023-06-26T06:06:12;2.72;;;1.52;;
16314;SDS011;8266;52.150;4.768;2023-06-26T06:08:40;4.00;;;1.88;;
16314;SDS011;8266;52.150;4.768;2023-06-26T06:11:08;2.97;;;2.00;;
16314;SDS011;8266;52.150;4.768;2023-06-26T06:13:35;3.88;;;1.85;;
16314;SDS011;8266;52.150;4.768;2023-06-26T06:16:01;5.30;;;1.70;;
16314;SDS011;8266;52.150;4.768;2023-06-26T06:18:30;4.50;;;1.70;;
16314;SDS011;8266;52.150;4.768;2023-06-26T06:20:57;3.63;;;1.52;;
16314;SDS011;8266;52.150;4.768;2023-06-26T06:23:24;3.53;;;1.88;;
16314;SDS011;8266;52.150;4.768;2023-06-26T06:25:51;5.85;;;1.85;;
16314;SDS011;8266;52.150;4.768;2023-06-26T06:28:18;4.95;;;1.88;;
16314;SDS011;8266;52.150;4.768;2023-06-26T06:30:45;4.20;;;1.48;;
16314;SDS011;8266;52.150;4.768;2023-06-26T06:33:13;1.77;;;1.23;;
16314;SDS011;8266;52.150;4.768;2023-06-26T06:35:41;3.28;;;1.40;;
16314;SDS011;8266;52.150;4.768;2023-06-26T06:38:08;4.57;;;1.60;;
16314;SDS011;8266;52.150;4.768;2023-06-26T06:40:35;3.00;;;1.27;;
16314;SDS011;8266;52.150;4.768;2023-06-26T06:43:02;3.28;;;1.20;;
16314;SDS011;8266;52.150;4.768;2023-06-26T06:45:29;1.15;;;0.95;;
16314;SDS011;8266;52.150;4.768;2023-06-26T06:47:56;2.97;;;1.08;;
16314;SDS011;8266;52.150;4.768;2023-06-26T06:50:23;4.13;;;1.52;;
16314;SDS011;8266;52.150;4.768;2023-06-26T06:52:51;4.95;;;1.42;;
16314;SDS011;8266;52.150;4.768;2023-06-26T06:55:18;4.68;;;1.25;;
16314;SDS011;8266;52.150;4.768;2023-06-26T06:57:47;5.35;;;1.40;;
16314;SDS011;8266;52.150;4.768;2023-06-26T07:00:14;3.70;;;1.23;;
16314;SDS011;8266;52.150;4.768;2023-06-26T07:02:42;3.33;;;1.25;;
16314;SDS011;8266;52.150;4.768;2023-06-26T07:05:10;3.15;;;1.02;;
16314;SDS011;8266;52.150;4.768;2023-06-26T07:07:37;3.63;;;1.70;;
16314;SDS011;8266;52.150;4.768;2023-06-26T07:10:07;2.50;;;1.15;;
16314;SDS011;8266;52.150;4.768;2023-06-26T07:12:35;3.38;;;1.20;;
16314;SDS011;8266;52.150;4.768;2023-06-26T07:15:03;3.63;;;1.33;;
16314;SDS011;8266;52.150;4.768;2023-06-26T07:17:31;5.38;;;1.15;;
16314;SDS011;8266;52.150;4.768;2023-06-26T07:19:58;3.22;;;1.08;;
16314;SDS011;8266;52.150;4.768;2023-06-26T07:22:26;2.83;;;1.10;;
16314;SDS011;8266;52.150;4.768;2023-06-26T07:24:53;3.30;;;0.80;;
16314;SDS011;8266;52.150;4.768;2023-06-26T07:27:22;5.20;;;1.05;;
16314;SDS011;8266;52.150;4.768;2023-06-26T07:29:48;5.80;;;1.38;;
16314;SDS011;8266;52.150;4.768;2023-06-26T07:32:15;2.63;;;1.02;;
16314;SDS011;8266;52.150;4.768;2023-06-26T07:34:42;3.75;;;1.10;;
16314;SDS011;8266;52.150;4.768;2023-06-26T07:37:09;3.65;;;1.10;;
16314;SDS011;8266;52.150;4.768;2023-06-26T07:39:36;3.33;;;0.90;;
16314;SDS011;8266;52.150;4.768;2023-06-26T07:42:03;3.22;;;1.05;;
16314;SDS011;8266;52.150;4.768;2023-06-26T07:44:32;2.67;;;1.20;;
16314;SDS011;8266;52.150;4.768;2023-06-26T07:46:59;4.50;;;1.13;;
16314;SDS011;8266;52.150;4.768;2023-06-26T07:49:26;3.83;;;1.00;;
16314;SDS011;8266;52.150;4.768;2023-06-26T07:51:52;2.65;;;1.10;;
16314;SDS011;8266;52.150;4.768;2023-06-26T07:54:19;2.78;;;1.20;;
16314;SDS011;8266;52.150;4.768;2023-06-26T07:56:53;4.25;;;0.90;;
16314;SDS011;8266;52.150;4.768;2023-06-26T07:59:21;4.63;;;1.30;;
16314;SDS011;8266;52.150;4.768;2023-06-26T08:01:50;2.80;;;1.13;;
16314;SDS011;8266;52.150;4.768;2023-06-26T08:04:18;4.43;;;1.08;;
16314;SDS011;8266;52.150;4.768;2023-06-26T08:06:47;2.25;;;0.80;;
16314;SDS011;8266;52.150;4.768;2023-06-26T08:09:14;4.47;;;1.02;;
16314;SDS011;8266;52.150;4.768;2023-06-26T08:11:42;3.13;;;1.10;;
16314;SDS011;8266;52.150;4.768;2023-06-26T08:14:09;2.33;;;1.13;;
16314;SDS011;8266;52.150;4.768;2023-06-26T08:16:37;1.90;;;1.08;;
16314;SDS011;8266;52.150;4.768;2023-06-26T08:19:05;4.85;;;1.20;;
16314;SDS011;8266;52.150;4.768;2023-06-26T08:21:32;3.05;;;0.90;;
16314;SDS011;8266;52.150;4.768;2023-06-26T08:23:59;2.67;;;0.93;;
16314;SDS011;8266;52.150;4.768;2023-06-26T08:26:26;3.97;;;1.15;;
16314;SDS011;8266;52.150;4.768;2023-06-26T08:28:53;3.22;;;1.20;;
16314;SDS011;8266;52.150;4.768;2023-06-26T08:31:20;4.72;;;1.40;;
16314;SDS011;8266;52.150;4.768;2023-06-26T08:33:47;3.05;;;1.00;;
16314;SDS011;8266;52.150;4.768;2023-06-26T08:36:16;2.50;;;1.10;;
16314;SDS011;8266;52.150;4.768;2023-06-26T08:38:43;2.03;;;1.02;;
16314;SDS011;8266;52.150;4.768;2023-06-26T08:41:10;3.72;;;1.17;;
16314;SDS011;8266;52.150;4.768;2023-06-26T08:43:37;2.72;;;1.17;;
16314;SDS011;8266;52.150;4.768;2023-06-26T08:46:04;3.53;;;1.20;;
16314;SDS011;8266;52.150;4.768;2023-06-26T08:48:31;3.38;;;1.42;;
16314;SDS011;8266;52.150;4.768;2023-06-26T08:50:59;1.63;;;1.00;;
16314;SDS011;8266;52.150;4.768;2023-06-26T08:53:33;3.38;;;1.05;;
16314;SDS011;8266;52.150;4.768;2023-06-26T08:56:06;2.55;;;1.13;;
16314;SDS011;8266;52.150;4.768;2023-06-26T08:58:35;3.08;;;1.00;;
16314;SDS011;8266;52.150;4.768;2023-06-26T09:01:03;4.97;;;1.50;;
16314;SDS011;8266;52.150;4.768;2023-06-26T09:03:31;2.92;;;0.90;;
16314;SDS011;8266;52.150;4.768;2023-06-26T09:05:58;3.22;;;0.88;;
16314;SDS011;8266;52.150;4.768;2023-06-26T09:08:26;1.63;;;0.73;;
16314;SDS011;8266;52.150;4.768;2023-06-26T09:10:54;2.67;;;0.80;;
16314;SDS011;8266;52.150;4.768;2023-06-26T09:13:21;3.22;;;1.10;;
16314;SDS011;8266;52.150;4.768;2023-06-26T09:15:48;3.15;;;1.00;;
16314;SDS011;8266;52.150;4.768;2023-06-26T09:18:16;3.25;;;1.10;;
16314;SDS011;8266;52.150;4.768;2023-06-26T09:20:45;2.47;;;1.00;;
16314;SDS011;8266;52.150;4.768;2023-06-26T09:23:12;2.97;;;1.10;;
16314;SDS011;8266;52.150;4.768;2023-06-26T09:25:40;3.75;;;1.13;;
16314;SDS011;8266;52.150;4.768;2023-06-26T09:28:09;3.35;;;0.93;;
16314;SDS011;8266;52.150;4.768;2023-06-26T09:30:36;2.72;;;1.33;;
16314;SDS011;8266;52.150;4.768;2023-06-26T09:33:12;2.55;;;0.88;;
16314;SDS011;8266;52.150;4.768;2023-06-26T09:35:40;2.63;;;0.90;;
16314;SDS011;8266;52.150;4.768;2023-06-26T09:38:07;4.32;;;0.85;;
16314;SDS011;8266;52.150;4.768;2023-06-26T09:40:34;2.30;;;0.90;;
16314;SDS011;8266;52.150;4.768;2023-06-26T09:43:03;2.80;;;1.10;;
16314;SDS011;8266;52.150;4.768;2023-06-26T09:45:32;3.38;;;1.23;;
16314;SDS011;8266;52.150;4.768;2023-06-26T09:48:00;3.20;;;0.90;;
16314;SDS011;8266;52.150;4.768;2023-06-26T09:50:29;3.70;;;1.10;;
16314;SDS011;8266;52.150;4.768;2023-06-26T09:52:59;2.58;;;1.02;;
16314;SDS011;8266;52.150;4.768;2023-06-26T09:55:34;4.80;;;1.33;;
16314;SDS011;8266;52.150;4.768;2023-06-26T09:58:02;3.33;;;1.00;;
16314;SDS011;8266;52.150;4.768;2023-06-26T10:00:29;2.15;;;1.15;;
16314;SDS011;8266;52.150;4.768;2023-06-26T10:02:58;5.70;;;1.15;;
16314;SDS011;8266;52.150;4.768;2023-06-26T10:05:26;2.33;;;1.02;;
16314;SDS011;8266;52.150;4.768;2023-06-26T10:07:53;2.78;;;0.80;;
16314;SDS011;8266;52.150;4.768;2023-06-26T10:10:22;1.77;;;0.90;;
16314;SDS011;8266;52.150;4.768;2023-06-26T10:12:51;2.72;;;0.95;;
16314;SDS011;8266;52.150;4.768;2023-06-26T10:15:22;2.00;;;0.93;;
16314;SDS011;8266;52.150;4.768;2023-06-26T10:17:51;2.33;;;1.20;;
16314;SDS011;8266;52.150;4.768;2023-06-26T10:20:21;1.45;;;0.70;;
16314;SDS011;8266;52.150;4.768;2023-06-26T10:22:49;1.48;;;0.70;;
16314;SDS011;8266;52.150;4.768;2023-06-26T10:25:16;2.50;;;0.70;;
16314;SDS011;8266;52.150;4.768;2023-06-26T10:27:50;2.40;;;1.00;;
16314;SDS011;8266;52.150;4.768;2023-06-26T10:30:22;3.15;;;0.85;;
16314;SDS011;8266;52.150;4.768;2023-06-26T10:32:55;3.80;;;0.90;;
16314;SDS011;8266;52.150;4.768;2023-06-26T10:35:23;1.30;;;0.73;;
16314;SDS011;8266;52.150;4.768;2023-06-26T10:37:50;2.22;;;0.70;;
16314;SDS011;8266;52.150;4.768;2023-06-26T10:40:21;3.33;;;1.00;;
16314;SDS011;8266;52.150;4.768;2023-06-26T10:42:48;1.85;;;0.95;;
16314;SDS011;8266;52.150;4.768;2023-06-26T10:45:16;2.53;;;0.68;;
16314;SDS011;8266;52.150;4.768;2023-06-26T10:47:46;2.63;;;1.10;;
16314;SDS011;8266;52.150;4.768;2023-06-26T10:50:18;1.15;;;0.82;;
16314;SDS011;8266;52.150;4.768;2023-06-26T10:53:06;3.70;;;0.93;;
16314;SDS011;8266;52.150;4.768;2023-06-26T10:55:41;1.85;;;0.80;;
16314;SDS011;8266;52.150;4.768;2023-06-26T10:58:28;1.95;;;1.02;;
16314;SDS011;8266;52.150;4.768;2023-06-26T11:01:14;2.13;;;0.88;;
16314;SDS011;8266;52.150;4.768;2023-06-26T11:03:47;3.83;;;1.10;;
16314;SDS011;8266;52.150;4.768;2023-06-26T11:06:18;1.40;;;0.63;;
16314;SDS011;8266;52.150;4.768;2023-06-26T11:08:46;3.08;;;1.08;;
16314;SDS011;8266;52.150;4.768;2023-06-26T11:11:14;1.90;;;0.90;;
16314;SDS011;8266;52.150;4.768;2023-06-26T11:13:41;1.55;;;0.60;;
16314;SDS011;8266;52.150;4.768;2023-06-26T11:16:10;2.38;;;0.88;;
16314;SDS011;8266;52.150;4.768;2023-06-26T11:18:38;4.00;;;1.17;;
16314;SDS011;8266;52.150;4.768;2023-06-26T11:21:05;2.67;;;0.60;;
16314;SDS011;8266;52.150;4.768;2023-06-26T11:23:34;2.17;;;0.70;;
16314;SDS011;8266;52.150;4.768;2023-06-26T11:26:15;4.07;;;0.80;;
16314;SDS011;8266;52.150;4.768;2023-06-26T11:28:50;2.53;;;0.80;;
16314;SDS011;8266;52.150;4.768;2023-06-26T11:31:26;3.80;;;0.85;;
16314;SDS011;8266;52.150;4.768;2023-06-26T11:33:55;2.80;;;1.08;;
16314;SDS011;8266;52.150;4.768;2023-06-26T11:36:23;1.52;;;0.60;;
16314;SDS011;8266;52.150;4.768;2023-06-26T11:38:56;1.98;;;0.73;;
16314;SDS011;8266;52.150;4.768;2023-06-26T11:41:24;2.38;;;0.73;;
16314;SDS011;8266;52.150;4.768;2023-06-26T11:43:52;2.47;;;1.23;;
16314;SDS011;8266;52.150;4.768;2023-06-26T11:46:19;1.60;;;0.77;;
16314;SDS011;8266;52.150;4.768;2023-06-26T11:48:47;3.45;;;0.70;;
16314;SDS011;8266;52.150;4.768;2023-06-26T11:51:15;0.90;;;0.70;;
16314;SDS011;8266;52.150;4.768;2023-06-26T11:53:42;3.35;;;0.90;;
16314;SDS011;8266;52.150;4.768;2023-06-26T11:56:12;4.57;;;1.38;;
16314;SDS011;8266;52.150;4.768;2023-06-26T11:58:54;2.30;;;0.85;;
16314;SDS011;8266;52.150;4.768;2023-06-26T12:01:22;2.88;;;0.80;;
16314;SDS011;8266;52.150;4.768;2023-06-26T12:03:50;2.00;;;0.88;;
16314;SDS011;8266;52.150;4.768;2023-06-26T12:06:17;1.10;;;0.70;;
16314;SDS011;8266;52.150;4.768;2023-06-26T12:08:44;1.80;;;0.70;;
16314;SDS011;8266;52.150;4.768;2023-06-26T12:11:13;1.58;;;0.77;;
16314;SDS011;8266;52.150;4.768;2023-06-26T12:13:40;2.05;;;1.00;;
16314;SDS011;8266;52.150;4.768;2023-06-26T12:16:07;3.00;;;0.93;;
16314;SDS011;8266;52.150;4.768;2023-06-26T12:18:35;1.58;;;0.80;;
16314;SDS011;8266;52.150;4.768;2023-06-26T12:21:02;2.85;;;0.93;;
16314;SDS011;8266;52.150;4.768;2023-06-26T12:23:32;4.55;;;1.15;;
16314;SDS011;8266;52.150;4.768;2023-06-26T12:26:15;4.60;;;0.88;;
16314;SDS011;8266;52.150;4.768;2023-06-26T12:28:44;3.10;;;1.00;;
16314;SDS011;8266;52.150;4.768;2023-06-26T12:31:12;2.63;;;0.90;;
16314;SDS011;8266;52.150;4.768;2023-06-26T12:33:40;2.55;;;0.70;;
16314;SDS011;8266;52.150;4.768;2023-06-26T12:36:10;2.70;;;0.93;;
16314;SDS011;8266;52.150;4.768;2023-06-26T12:38:38;1.65;;;0.77;;
16314;SDS011;8266;52.150;4.768;2023-06-26T12:41:05;2.88;;;0.88;;
16314;SDS011;8266;52.150;4.768;2023-06-26T12:43:39;3.03;;;1.02;;
16314;SDS011;8266;52.150;4.768;2023-06-26T12:46:06;1.92;;;0.95;;
16314;SDS011;8266;52.150;4.768;2023-06-26T12:48:37;2.38;;;0.65;;
16314;SDS011;8266;52.150;4.768;2023-06-26T12:51:09;3.15;;;0.70;;
16314;SDS011;8266;52.150;4.768;2023-06-26T12:53:36;1.83;;;0.82;;
16314;SDS011;8266;52.150;4.768;2023-06-26T12:56:04;3.10;;;1.02;;
16314;SDS011;8266;52.150;4.768;2023-06-26T12:58:32;1.60;;;0.80;;
16314;SDS011;8266;52.150;4.768;2023-06-26T13:01:02;2.22;;;0.80;;
16314;SDS011;8266;52.150;4.768;2023-06-26T13:03:30;1.50;;;0.80;;
16314;SDS011;8266;52.150;4.768;2023-06-26T13:05:57;1.70;;;0.82;;
16314;SDS011;8266;52.150;4.768;2023-06-26T13:08:24;2.08;;;0.82;;
16314;SDS011;8266;52.150;4.768;2023-06-26T13:10:51;1.42;;;0.70;;
16314;SDS011;8266;52.150;4.768;2023-06-26T13:13:18;2.35;;;0.70;;
16314;SDS011;8266;52.150;4.768;2023-06-26T13:15:45;2.05;;;0.80;;
16314;SDS011;8266;52.150;4.768;2023-06-26T13:18:13;2.00;;;0.70;;
16314;SDS011;8266;52.150;4.768;2023-06-26T13:20:40;2.25;;;0.77;;
16314;SDS011;8266;52.150;4.768;2023-06-26T13:23:07;2.92;;;1.08;;
16314;SDS011;8266;52.150;4.768;2023-06-26T13:25:34;1.70;;;0.70;;
16314;SDS011;8266;52.150;4.768;2023-06-26T13:28:01;1.02;;;0.55;;
16314;SDS011;8266;52.150;4.768;2023-06-26T13:30:28;1.20;;;0.60;;
16314;SDS011;8266;52.150;4.768;2023-06-26T13:32:55;0.77;;;0.50;;
16314;SDS011;8266;52.150;4.768;2023-06-26T13:35:23;1.85;;;0.80;;
16314;SDS011;8266;52.150;4.768;2023-06-26T13:37:50;1.85;;;0.70;;
16314;SDS011;8266;52.150;4.768;2023-06-26T13:40:17;2.20;;;0.95;;
16314;SDS011;8266;52.150;4.768;2023-06-26T13:42:44;2.75;;;0.80;;
16314;SDS011;8266;52.150;4.768;2023-06-26T13:45:11;1.10;;;0.57;;
16314;SDS011;8266;52.150;4.768;2023-06-26T13:47:38;6.13;;;0.93;;
16314;SDS011;8266;52.150;4.768;2023-06-26T13:50:07;2.70;;;0.82;;
16314;SDS011;8266;52.150;4.768;2023-06-26T13:52:35;2.55;;;0.68;;
16314;SDS011;8266;52.150;4.768;2023-06-26T13:55:03;1.95;;;0.80;;
16314;SDS011;8266;52.150;4.768;2023-06-26T13:57:30;2.40;;;0.80;;
16314;SDS011;8266;52.150;4.768;2023-06-26T13:59:58;2.08;;;0.60;;
16314;SDS011;8266;52.150;4.768;2023-06-26T14:02:27;1.88;;;0.93;;
16314;SDS011;8266;52.150;4.768;2023-06-26T14:04:54;4.00;;;0.93;;
16314;SDS011;8266;52.150;4.768;2023-06-26T14:07:21;3.55;;;1.20;;
16314;SDS011;8266;52.150;4.768;2023-06-26T14:09:49;2.58;;;0.50;;
16314;SDS011;8266;52.150;4.768;2023-06-26T14:12:16;2.58;;;0.60;;
16314;SDS011;8266;52.150;4.768;2023-06-26T14:14:43;6.30;;;1.10;;
16314;SDS011;8266;52.150;4.768;2023-06-26T14:17:10;1.35;;;0.45;;
16314;SDS011;8266;52.150;4.768;2023-06-26T14:19:41;2.88;;;0.70;;
16314;SDS011;8266;52.150;4.768;2023-06-26T14:22:08;2.45;;;0.70;;
16314;SDS011;8266;52.150;4.768;2023-06-26T14:24:35;1.42;;;0.70;;
16314;SDS011;8266;52.150;4.768;2023-06-26T14:27:04;1.13;;;0.50;;
16314;SDS011;8266;52.150;4.768;2023-06-26T14:29:31;2.28;;;0.73;;
16314;SDS011;8266;52.150;4.768;2023-06-26T14:31:58;2.13;;;0.63;;
16314;SDS011;8266;52.150;4.768;2023-06-26T14:34:25;2.25;;;0.52;;
16314;SDS011;8266;52.150;4.768;2023-06-26T14:36:52;3.22;;;0.68;;
16314;SDS011;8266;52.150;4.768;2023-06-26T14:39:19;1.48;;;0.80;;
16314;SDS011;8266;52.150;4.768;2023-06-26T14:41:46;1.88;;;0.70;;
16314;SDS011;8266;52.150;4.768;2023-06-26T14:44:15;1.75;;;0.57;;
16314;SDS011;8266;52.150;4.768;2023-06-26T14:46:42;1.52;;;0.93;;
16314;SDS011;8266;52.150;4.768;2023-06-26T14:49:09;0.80;;;0.70;;
16314;SDS011;8266;52.150;4.768;2023-06-26T14:51:36;2.03;;;0.77;;
16314;SDS011;8266;52.150;4.768;2023-06-26T14:54:05;4.60;;;1.05;;
16314;SDS011;8266;52.150;4.768;2023-06-26T14:56:32;1.33;;;0.60;;
16314;SDS011;8266;52.150;4.768;2023-06-26T14:58:59;2.03;;;0.70;;
16314;SDS011;8266;52.150;4.768;2023-06-26T15:01:27;1.65;;;0.55;;
16314;SDS011;8266;52.150;4.768;2023-06-26T15:03:55;2.70;;;0.80;;
16314;SDS011;8266;52.150;4.768;2023-06-26T15:06:22;0.98;;;0.43;;
16314;SDS011;8266;52.150;4.768;2023-06-26T15:08:49;1.65;;;0.80;;
16314;SDS011;8266;52.150;4.768;2023-06-26T15:11:15;3.03;;;0.80;;